Flight Track Log - Related Links

Times and Time Zones

All times are in EDT time to prevent confusion due to time zone crossing. See the N373LD flight status page for this flight to view local times or setup timezone preferences in your user account.


Time Position Orientation Groundspeed Altitude Reporting Facility
EDT Latitude Longitude Course Direction KTS MPH feet Rate Location/Type
Thu 09:04:48 PM 46.3039 -106.0869 234° Southwest 169 194 7,500  Level Salt Lake Center
Thu 09:05:50 PM 46.2747 -106.1386 231° Southwest 172 198 10,500 2,226 Climbing Salt Lake Center
Thu 09:06:52 PM 46.2408 -106.1978 230° Southwest 172 198 12,100 1,317 Climbing Salt Lake Center
Thu 09:07:53 PM 46.2164 -106.2483 235° Southwest 164 189 13,200 1,220 Climbing Salt Lake Center
Thu 09:08:00 PM 46.2037 -106.2441 228° Southwest  Level FlightAware Approximate
Thu 09:08:55 PM 46.1853 -106.2997 229° Southwest 156 180 14,600  Level Salt Lake Center
Thu 09:09:00 PM 46.1678 -106.3037 229° Southwest  Level FlightAware Approximate
Thu 09:09:57 PM 46.1586 -106.3428 228° Southwest 150 173 15,800  Level Salt Lake Center
Thu 09:10:00 PM 46.1339 -106.3656 234° Southwest  Level FlightAware Approximate
Thu 09:10:58 PM 46.1289 -106.3953 231° Southwest 151 174 17,000  Level Salt Lake Center
Thu 09:12:00 PM 46.1031 -106.4386 229° Southwest 151 174 18,000 968 Climbing Salt Lake Center
Thu 09:13:02 PM 46.0778 -106.4831 231° Southwest 151 174 19,000 927 Climbing Salt Lake Center
Thu 09:14:03 PM 46.0428 -106.5322 224° Southwest 154 177 19,900 488 Climbing Salt Lake Center
Thu 09:15:05 PM 46.0075 -106.5783 222° Southwest 174 200 20,000 49 Climbing Salt Lake Center
Thu 09:16:06 PM 45.9642 -106.6342 222° Southwest 186 214 20,000  Level Salt Lake Center
Thu 09:17:08 PM 45.9253 -106.6894 225° Southwest 197 227 20,000  Level Salt Lake Center
Thu 09:18:09 PM 45.8797 -106.7528 224° Southwest 203 234 20,000  Level Salt Lake Center
Thu 09:19:11 PM 45.8406 -106.8061 223° Southwest 204 235 20,000  Level Salt Lake Center
Thu 09:20:13 PM 45.8008 -106.8583 223° Southwest 204 235 20,000  Level Salt Lake Center
Thu 09:21:14 PM 45.7556 -106.9192 223° Southwest 200 230 20,000  Level Salt Lake Center
Thu 09:22:16 PM 45.7158 -106.9708 222° Southwest 199 229 20,000  Level Salt Lake Center
Thu 09:23:17 PM 45.6708 -107.0319 224° Southwest 200 230 20,000  Level Salt Lake Center
Thu 09:24:19 PM 45.6317 -107.0844 223° Southwest 201 231 20,000  Level Salt Lake Center
Thu 09:25:20 PM 45.5931 -107.1364 223° Southwest 200 230 20,000  Level Salt Lake Center
Thu 09:26:22 PM 45.5475 -107.2025 225° Southwest 207 238 20,000  Level Salt Lake Center
Thu 09:27:23 PM 45.5078 -107.2564 224° Southwest 206 237 20,000  Level Salt Lake Center
Thu 09:28:25 PM 45.4625 -107.3144 222° Southwest 197 227 20,000  Level Salt Lake Center
Thu 09:29:26 PM 45.4253 -107.3644 223° Southwest 192 221 20,000  Level Salt Lake Center
Thu 09:30:28 PM 45.3828 -107.4217 223° Southwest 188 216 20,000  Level Salt Lake Center
Thu 09:31:29 PM 45.3450 -107.4706 222° Southwest 191 220 20,000  Level Salt Lake Center
Thu 09:32:31 PM 45.3094 -107.5147 221° Southwest 182 209 20,000  Level Salt Lake Center
Thu 09:33:32 PM 45.2644 -107.5750 223° Southwest 189 217 20,000  Level Salt Lake Center
Thu 09:34:34 PM 45.2267 -107.6247 223° Southwest 188 216 20,000  Level Salt Lake Center
Thu 09:35:35 PM 45.1897 -107.6739 223° Southwest 182 209 20,000  Level Salt Lake Center
Thu 09:36:37 PM 45.1486 -107.7275 223° Southwest 190 219 20,000  Level Salt Lake Center
Thu 09:37:38 PM 45.1086 -107.7794 223° Southwest 194 223 20,000  Level Salt Lake Center
Thu 09:38:40 PM 45.0694 -107.8311 223° Southwest 191 220 20,000  Level Salt Lake Center
Thu 09:39:41 PM 45.0367 -107.8744 223° Southwest 175 201 20,000  Level Salt Lake Center
Thu 09:40:43 PM 45.0000 -107.9233 223° Southwest 166 191 20,000  Level Salt Lake Center
Thu 09:41:44 PM 44.9586 -107.9461 201° Southwest 168 193 20,000  Level Salt Lake Center
Thu 09:42:46 PM 44.9083 -107.9739 201° Southwest 173 199 20,000  Level Salt Lake Center
Thu 09:43:47 PM 44.8736 -107.9903 198° South 139 160 20,000  Level Salt Lake Center
Thu 09:44:49 PM 44.8425 -108.0289 221° Southwest 139 160 20,000  Level Salt Lake Center
Thu 09:45:50 PM 44.8269 -108.0881 250° West 159 183 20,000  Level Salt Lake Center
Thu 09:46:51 PM 44.8081 -108.1436 244° Southwest 164 189 20,000  Level Salt Lake Center
Thu 09:47:53 PM 44.7897 -108.2036 247° West 154 177 20,000 -146 Level Salt Lake Center
Thu 09:48:54 PM 44.7739 -108.2497 244° Southwest 140 161 19,700 -683 Descending Salt Lake Center
Thu 09:49:56 PM 44.7525 -108.3183 246° West 166 191 18,600 -1,220 Descending Salt Lake Center
Thu 09:50:57 PM 44.7353 -108.3747 247° West 166 191 17,200 -1,268 Descending Salt Lake Center
Thu 09:51:59 PM 44.7172 -108.4347 247° West 172 198 16,000 -1,463 Descending Salt Lake Center
Thu 09:53:00 PM 44.6942 -108.5044 245° Southwest 172 198 14,200 -1,463 Descending Salt Lake Center
Thu 09:54:02 PM 44.6719 -108.5722 245° Southwest 186 214 13,000 -1,317 Descending Salt Lake Center
Thu 09:55:03 PM 44.6481 -108.6500 247° West 193 222 11,500 -1,475 Descending Salt Lake Center

Login

Don't have an account? Register now (free) for customized features, flight alerts, and more!